ADDS METAR Data INFO
IDs: Format: Raw Decoded Include TAF

Data at: 1325 UTC 25 Feb 2018

KHSA 251248Z 00000KT 10SM BKN006 BKN075 21/21 A3009
KHSA 250250Z 19006KT 10SM SCT090 22/21 A3006
KHSA 250150Z 18008KT 10SM SCT060 22/21 A3004
KHSA 250051Z 19007KT 10SM SCT027 SCT040 23/21 A3001
KHSA 242349Z 20014G22KT 10SM SCT029 22/20 A3001
KHSA 242250Z 20014G22KT 10SM SCT029 BKN040 25/20 A3000
KHSA 242149Z 20014G22KT 10SM BKN031 26/20 A3000
KHSA 242051Z 16016G22KT 10SM SCT023 26/21 A3001
KHSA 241950Z 17014G18KT 10SM BKN025 26/21 A3003
KHSA 241855Z 16014G19KT 10SM BKN024 26/20 A3005
KHSA 241750Z 18016G19KT 10SM BKN024 26/20 A3008
KHSA 241652Z 17013KT 10SM BKN024 26/21 A3011
KHSA 241550Z 18011G15KT 10SM SCT020 26/21 A3012
KHSA 241452Z 18009G14KT 10SM SCT019 25/21 A3013
KHSA 241353Z 18005KT 10SM SCT040 22/21 A3012
KHSA 241251Z 00000KT 10SM SCT040 BKN080 20/19 A3011
KHSA 240252Z 16006KT 7SM SCT034 BKN060 22/20 A3019
KHSA 240150Z 20005KT 7SM SCT020 BKN031 22/20 A3019